createdAt,value
2018-11-29T00:01:58.756Z,49.65
2018-11-29T00:04:26.423Z,49.33
2018-11-29T00:06:54.078Z,49.51
2018-11-29T00:09:21.716Z,49.71
2018-11-29T00:11:49.336Z,49.93
2018-11-29T00:14:16.971Z,48.98
2018-11-29T00:16:44.612Z,48.95
2018-11-29T00:19:12.248Z,48.88
2018-11-29T00:21:39.874Z,48.90
2018-11-29T00:24:07.535Z,49.38
2018-11-29T00:26:35.142Z,49.28
2018-11-29T00:29:02.805Z,48.96
2018-11-29T00:31:30.433Z,49.22
2018-11-29T00:33:58.087Z,49.66
2018-11-29T00:36:25.710Z,49.58
2018-11-29T00:38:53.329Z,49.62
2018-11-29T00:41:20.957Z,49.11
2018-11-29T00:43:48.571Z,49.61
2018-11-29T00:46:16.263Z,49.02
2018-11-29T00:48:43.875Z,49.00
2018-11-29T00:51:11.555Z,49.36
2018-11-29T00:53:39.170Z,49.47
2018-11-29T00:56:06.798Z,49.54
2018-11-29T00:58:34.427Z,49.08
2018-11-29T01:01:02.051Z,49.10
2018-11-29T01:03:29.667Z,49.72
2018-11-29T01:05:57.278Z,48.97
2018-11-29T01:08:24.931Z,48.72
2018-11-29T01:10:52.570Z,49.60
2018-11-29T01:13:20.192Z,48.91
2018-11-29T01:15:47.828Z,49.56
2018-11-29T01:18:15.459Z,49.23
2018-11-29T01:20:43.100Z,49.35
2018-11-29T01:23:10.719Z,49.02
2018-11-29T01:25:38.340Z,49.13
2018-11-29T01:28:06.006Z,49.68
2018-11-29T01:30:33.661Z,49.64
2018-11-29T01:33:01.295Z,49.25
2018-11-29T01:35:28.910Z,49.65
2018-11-29T01:37:56.567Z,49.13
2018-11-29T01:40:24.226Z,49.27
2018-11-29T01:42:54.458Z,48.90
2018-11-29T01:45:22.115Z,48.78
2018-11-29T01:47:49.769Z,48.91
2018-11-29T01:50:17.417Z,48.90
2018-11-29T01:52:45.059Z,48.89
2018-11-29T01:55:12.679Z,49.44
2018-11-29T01:57:40.291Z,49.44
2018-11-29T02:00:13.516Z,49.75
2018-11-29T02:02:41.163Z,49.35
2018-11-29T02:05:09.462Z,49.30
2018-11-29T02:07:37.771Z,49.94
2018-11-29T02:10:11.613Z,49.40
2018-11-29T02:12:39.267Z,49.25
2018-11-29T02:15:07.150Z,50.20
2018-11-29T02:17:34.781Z,50.02
2018-11-29T02:20:02.500Z,50.22
2018-11-29T02:22:30.136Z,50.08
2018-11-29T02:24:57.768Z,49.45
2018-11-29T02:27:25.384Z,50.28
2018-11-29T02:29:53.017Z,50.09
2018-11-29T02:32:20.724Z,49.65
2018-11-29T02:34:48.367Z,49.64
2018-11-29T02:37:16.019Z,49.61
2018-11-29T02:39:43.639Z,50.03
2018-11-29T02:42:11.266Z,50.25
2018-11-29T02:44:39.035Z,49.49
2018-11-29T02:47:06.655Z,49.98
2018-11-29T02:49:34.301Z,49.68
2018-11-29T02:52:01.936Z,50.31
2018-11-29T02:54:29.559Z,50.18
2018-11-29T02:56:57.203Z,50.05
2018-11-29T02:59:24.835Z,50.46
2018-11-29T03:01:52.455Z,49.64
2018-11-29T03:04:20.083Z,49.66
2018-11-29T03:06:47.744Z,49.79
2018-11-29T03:09:15.373Z,50.21
2018-11-29T03:11:42.990Z,49.97
2018-11-29T03:14:10.659Z,50.24
2018-11-29T03:16:38.279Z,50.45
2018-11-29T03:19:06.192Z,49.72
2018-11-29T03:21:33.854Z,49.69
2018-11-29T03:24:01.496Z,49.67
2018-11-29T03:26:29.124Z,49.85
2018-11-29T03:28:56.748Z,50.30
2018-11-29T03:31:24.390Z,50.05
2018-11-29T03:33:52.038Z,50.08
2018-11-29T03:36:19.680Z,49.85
2018-11-29T03:38:47.316Z,49.87
2018-11-29T03:41:14.954Z,49.92
2018-11-29T03:43:42.588Z,49.92
2018-11-29T03:46:10.215Z,50.62
2018-11-29T03:48:37.853Z,50.61
2018-11-29T03:51:05.528Z,50.80
2018-11-29T03:53:33.175Z,49.99
2018-11-29T03:56:00.794Z,50.17
2018-11-29T03:58:28.462Z,49.74
2018-11-29T04:00:56.099Z,50.13
2018-11-29T04:03:23.734Z,50.23
2018-11-29T04:05:51.358Z,50.76
2018-11-29T04:08:18.982Z,50.44
2018-11-29T04:10:46.616Z,50.49
2018-11-29T04:13:14.244Z,49.80
2018-11-29T04:15:41.972Z,50.59
2018-11-29T04:18:09.607Z,50.04
2018-11-29T04:20:37.246Z,49.83
2018-11-29T04:23:04.963Z,50.01
2018-11-29T04:25:32.599Z,50.77
2018-11-29T04:28:00.235Z,50.09
2018-11-29T04:30:27.893Z,49.85
2018-11-29T04:32:55.531Z,50.58
2018-11-29T04:35:23.192Z,50.18
2018-11-29T04:37:51.196Z,50.20
2018-11-29T04:40:19.856Z,50.61
2018-11-29T04:42:47.711Z,50.24
2018-11-29T04:45:16.717Z,50.12
2018-11-29T04:47:44.379Z,50.37
2018-11-29T04:50:12.151Z,49.97
2018-11-29T04:52:40.163Z,50.68
2018-11-29T04:55:08.634Z,50.70
2018-11-29T04:57:36.347Z,50.56
2018-11-29T05:00:04.645Z,50.18
2018-11-29T05:02:32.474Z,50.03
2018-11-29T05:05:00.607Z,49.70
2018-11-29T05:07:28.663Z,49.92
2018-11-29T05:09:56.320Z,50.46
2018-11-29T05:12:23.979Z,50.32
2018-11-29T05:14:51.598Z,49.72
2018-11-29T05:17:19.284Z,50.08
2018-11-29T05:19:46.922Z,49.51
2018-11-29T05:22:14.616Z,49.61
2018-11-29T05:24:42.262Z,49.79
2018-11-29T05:27:09.930Z,50.35
2018-11-29T05:29:37.559Z,49.69
2018-11-29T05:32:05.466Z,50.17
2018-11-29T05:34:33.092Z,50.62
2018-11-29T05:37:00.723Z,49.67
2018-11-29T05:39:28.350Z,49.73
2018-11-29T05:41:56.014Z,49.57
2018-11-29T05:44:23.638Z,50.38
2018-11-29T05:46:51.331Z,50.07
2018-11-29T05:49:18.971Z,49.83
2018-11-29T05:51:46.619Z,50.26
2018-11-29T05:54:14.259Z,49.79
2018-11-29T05:56:41.955Z,50.36
2018-11-29T05:59:09.589Z,50.01
2018-11-29T06:01:39.186Z,50.33
2018-11-29T06:04:06.831Z,50.04
2018-11-29T06:06:34.454Z,49.45
2018-11-29T06:09:02.105Z,50.14
2018-11-29T06:11:29.807Z,50.03
2018-11-29T06:13:57.459Z,49.93
2018-11-29T06:16:25.270Z,49.90
2018-11-29T06:18:52.906Z,49.69
2018-11-29T06:21:20.542Z,50.19
2018-11-29T06:23:48.170Z,49.84
2018-11-29T06:26:15.843Z,50.00
2018-11-29T06:28:43.466Z,49.56
2018-11-29T06:31:11.104Z,50.12
2018-11-29T06:33:38.733Z,49.38
2018-11-29T06:36:06.355Z,49.18
2018-11-29T06:38:33.996Z,49.45
2018-11-29T06:41:01.647Z,50.11
2018-11-29T06:43:29.267Z,50.28
2018-11-29T06:45:56.887Z,49.49
2018-11-29T06:48:24.532Z,50.45
2018-11-29T06:50:52.164Z,50.38
2018-11-29T06:53:25.131Z,49.67
2018-11-29T06:55:52.979Z,50.62
2018-11-29T06:58:20.627Z,50.26
2018-11-29T07:00:48.411Z,50.56
2018-11-29T07:03:16.052Z,49.75
2018-11-29T07:05:43.687Z,49.87
2018-11-29T07:08:11.340Z,49.92
2018-11-29T07:10:38.962Z,50.28
2018-11-29T07:13:06.943Z,50.36
2018-11-29T07:15:34.572Z,50.38
2018-11-29T07:18:02.230Z,49.90
2018-11-29T07:20:29.865Z,49.97
2018-11-29T07:22:57.519Z,50.28
2018-11-29T07:25:25.160Z,49.78
2018-11-29T07:27:52.804Z,50.01
2018-11-29T07:30:20.529Z,50.62
2018-11-29T07:32:48.153Z,49.66
2018-11-29T07:35:16.258Z,50.12
2018-11-29T07:37:43.895Z,49.85
2018-11-29T07:40:14.913Z,49.56
2018-11-29T07:42:42.599Z,49.53
2018-11-29T07:45:12.091Z,49.49
2018-11-29T07:47:39.736Z,49.68
2018-11-29T07:50:10.335Z,49.62
2018-11-29T07:52:37.966Z,49.61
2018-11-29T07:55:07.385Z,49.64
2018-11-29T07:57:35.019Z,50.03
2018-11-29T08:00:02.684Z,49.48
2018-11-29T08:02:30.312Z,50.13
2018-11-29T08:04:57.955Z,49.56
2018-11-29T08:07:25.582Z,49.87
2018-11-29T08:09:53.210Z,49.61
2018-11-29T08:12:20.848Z,49.80
2018-11-29T08:14:48.492Z,50.17
2018-11-29T08:17:16.143Z,50.08
2018-11-29T08:19:43.791Z,49.65
2018-11-29T08:22:11.425Z,49.75
2018-11-29T08:24:39.083Z,49.84
2018-11-29T08:27:06.715Z,49.83
2018-11-29T08:29:35.155Z,49.87
2018-11-29T08:32:02.023Z,49.88
2018-11-29T08:34:29.672Z,49.61
2018-11-29T08:36:57.349Z,50.35
2018-11-29T08:39:24.981Z,50.58
2018-11-29T08:41:52.631Z,50.03
2018-11-29T08:44:20.276Z,49.91
2018-11-29T08:46:47.920Z,51.08
2018-11-29T08:49:15.561Z,50.68
2018-11-29T08:51:43.209Z,51.34
2018-11-29T08:54:10.855Z,51.98
2018-11-29T08:56:38.491Z,52.01
2018-11-29T08:59:06.391Z,51.37
2018-11-29T09:01:34.019Z,51.51
2018-11-29T09:04:01.735Z,51.09
2018-11-29T09:06:29.387Z,51.89
2018-11-29T09:08:57.025Z,50.78
2018-11-29T09:11:24.694Z,51.47
2018-11-29T09:13:52.328Z,51.27
2018-11-29T09:16:19.944Z,50.88
2018-11-29T09:18:47.579Z,50.80
2018-11-29T09:21:15.226Z,51.18
2018-11-29T09:23:42.874Z,50.85
2018-11-29T09:26:10.499Z,50.20
2018-11-29T09:28:38.121Z,49.94
2018-11-29T09:31:06.005Z,50.64
2018-11-29T09:33:33.637Z,50.42
2018-11-29T09:36:01.267Z,50.64
2018-11-29T09:38:28.978Z,49.99
2018-11-29T09:40:56.645Z,49.83
2018-11-29T09:43:24.318Z,49.68
2018-11-29T09:45:51.938Z,49.97
2018-11-29T09:48:19.559Z,50.13
2018-11-29T09:50:47.224Z,50.23
2018-11-29T09:53:14.851Z,49.45
2018-11-29T09:55:42.480Z,50.39
2018-11-29T09:58:10.115Z,50.21
2018-11-29T10:00:37.750Z,50.10
2018-11-29T10:03:09.860Z,50.29
2018-11-29T10:05:37.623Z,49.29
2018-11-29T10:08:11.552Z,49.58
2018-11-29T10:10:33.648Z,49.14
2018-11-29T10:13:01.289Z,49.42
2018-11-29T10:15:28.912Z,49.98
2018-11-29T10:17:56.545Z,49.39
2018-11-29T10:20:24.180Z,49.29
2018-11-29T10:22:51.808Z,49.72
2018-11-29T10:25:19.421Z,49.18
2018-11-29T10:27:47.971Z,49.34
2018-11-29T10:30:18.504Z,49.92
2018-11-29T10:32:46.228Z,49.09
2018-11-29T10:35:13.910Z,49.37
2018-11-29T10:37:41.564Z,49.61
2018-11-29T10:40:09.893Z,49.76
2018-11-29T10:42:37.532Z,49.28
2018-11-29T10:45:07.132Z,49.83
2018-11-29T10:47:34.746Z,49.11
2018-11-29T10:50:02.381Z,48.93
2018-11-29T10:52:30.035Z,49.42
2018-11-29T10:54:57.673Z,48.56
2018-11-29T10:57:25.356Z,49.29
2018-11-29T10:59:52.983Z,48.37
2018-11-29T11:02:25.868Z,49.41
2018-11-29T11:04:53.488Z,49.16
2018-11-29T11:07:21.098Z,48.96
2018-11-29T11:09:48.754Z,49.55
2018-11-29T11:12:18.761Z,49.35
2018-11-29T11:14:44.059Z,49.53
2018-11-29T11:17:11.688Z,48.50
2018-11-29T11:19:39.323Z,49.42
2018-11-29T11:22:06.962Z,49.36
2018-11-29T11:24:34.616Z,49.26
2018-11-29T11:27:02.238Z,49.60
2018-11-29T11:29:29.867Z,49.37
2018-11-29T11:31:57.492Z,49.26
2018-11-29T11:34:25.135Z,48.96
2018-11-29T11:36:52.776Z,49.70
2018-11-29T11:39:20.403Z,49.86
2018-11-29T11:41:48.060Z,49.57
2018-11-29T11:44:15.671Z,49.53
2018-11-29T11:46:43.306Z,48.98
2018-11-29T11:49:10.936Z,49.20
2018-11-29T11:51:38.560Z,48.87
2018-11-29T11:54:06.196Z,48.91
2018-11-29T11:56:33.833Z,49.67
2018-11-29T11:59:01.480Z,49.20
2018-11-29T12:01:29.114Z,49.62
2018-11-29T12:03:56.776Z,49.27
2018-11-29T12:06:24.403Z,49.23
2018-11-29T12:08:52.038Z,49.64
2018-11-29T12:11:19.676Z,49.67
2018-11-29T12:13:47.327Z,49.45
2018-11-29T12:16:14.960Z,49.45
2018-11-29T12:18:42.616Z,49.43
2018-11-29T12:21:10.226Z,48.68
2018-11-29T12:23:37.932Z,49.38
2018-11-29T12:26:05.662Z,49.53
2018-11-29T12:28:33.296Z,48.74
2018-11-29T12:31:00.949Z,49.51
2018-11-29T12:33:28.588Z,48.64
2018-11-29T12:35:56.224Z,49.45
2018-11-29T12:38:23.886Z,48.88
2018-11-29T12:40:51.520Z,48.84
2018-11-29T12:43:19.150Z,49.37
2018-11-29T12:45:46.780Z,49.19
2018-11-29T12:48:14.424Z,49.42
2018-11-29T12:50:42.068Z,49.37
2018-11-29T12:53:09.690Z,49.08
2018-11-29T12:55:42.025Z,48.82
2018-11-29T12:58:09.653Z,49.50
2018-11-29T13:00:37.303Z,49.49
2018-11-29T13:05:35.643Z,49.50
2018-11-29T13:08:03.267Z,49.80
2018-11-29T13:10:30.907Z,49.76
2018-11-29T13:12:58.540Z,49.04
2018-11-29T13:15:27.776Z,49.56
2018-11-29T13:17:55.751Z,49.76
2018-11-29T13:20:23.402Z,49.66
2018-11-29T13:22:51.040Z,49.12
2018-11-29T13:25:19.200Z,49.27
2018-11-29T13:27:46.927Z,49.71
2018-11-29T13:30:15.142Z,49.70
2018-11-29T13:32:42.811Z,49.63
2018-11-29T13:35:12.879Z,49.59
2018-11-29T13:37:40.548Z,48.91
2018-11-29T13:40:09.608Z,49.55
2018-11-29T13:42:37.502Z,49.42
2018-11-29T13:45:06.035Z,48.73
2018-11-29T13:47:33.650Z,48.82
2018-11-29T13:50:01.302Z,48.98
2018-11-29T13:52:29.001Z,48.97
2018-11-29T13:54:56.618Z,49.38
2018-11-29T13:57:24.250Z,49.35
2018-11-29T13:59:51.868Z,49.10
2018-11-29T14:02:19.523Z,48.83
2018-11-29T14:04:47.149Z,48.86
2018-11-29T14:07:14.795Z,48.76
2018-11-29T14:09:42.500Z,49.49
2018-11-29T14:12:10.122Z,49.57
2018-11-29T14:14:37.749Z,49.28
2018-11-29T14:17:05.373Z,49.33
2018-11-29T14:19:32.995Z,48.73
2018-11-29T14:22:00.614Z,48.83
2018-11-29T14:24:28.231Z,49.44
2018-11-29T14:26:55.890Z,48.72
2018-11-29T14:29:23.528Z,48.81
2018-11-29T14:31:51.188Z,49.09
2018-11-29T14:34:18.811Z,48.58
2018-11-29T14:36:46.469Z,49.24
2018-11-29T14:39:14.114Z,48.67
2018-11-29T14:41:41.737Z,48.58
2018-11-29T14:44:09.387Z,48.77
2018-11-29T14:46:37.008Z,48.76
2018-11-29T14:49:04.645Z,48.50
2018-11-29T14:51:32.425Z,48.76
2018-11-29T14:54:00.050Z,48.43
2018-11-29T14:56:27.680Z,48.64
2018-11-29T14:58:55.341Z,48.95
2018-11-29T15:01:23.029Z,49.28
2018-11-29T15:03:50.648Z,49.14
2018-11-29T15:06:18.264Z,48.45
2018-11-29T15:08:45.907Z,48.42
2018-11-29T15:11:13.579Z,48.78
2018-11-29T15:13:41.203Z,48.23
2018-11-29T15:16:08.836Z,48.47
2018-11-29T15:18:36.460Z,49.13
2018-11-29T15:21:04.144Z,48.22
2018-11-29T15:23:31.778Z,48.35
2018-11-29T15:25:59.415Z,49.05
2018-11-29T15:28:27.035Z,48.41
2018-11-29T15:30:54.684Z,48.92
2018-11-29T15:33:22.314Z,48.67
2018-11-29T15:35:49.970Z,48.30
2018-11-29T15:38:17.645Z,48.43
2018-11-29T15:40:45.274Z,48.42
2018-11-29T15:43:12.907Z,48.68
2018-11-29T15:45:40.518Z,48.44
2018-11-29T15:48:08.166Z,48.31
2018-11-29T15:50:35.801Z,48.60
2018-11-29T15:53:03.530Z,49.06
2018-11-29T15:55:31.207Z,48.96
2018-11-29T15:57:58.836Z,48.44
2018-11-29T16:00:27.100Z,48.19
2018-11-29T16:02:55.283Z,48.48
2018-11-29T16:05:23.706Z,48.66
2018-11-29T16:07:51.457Z,48.93
2018-11-29T16:10:19.762Z,48.38
2018-11-29T16:12:47.499Z,48.55
2018-11-29T16:15:15.721Z,48.27
2018-11-29T16:17:43.673Z,48.07
2018-11-29T16:20:13.103Z,48.04
2018-11-29T16:22:40.928Z,47.87
2018-11-29T16:25:09.380Z,48.56
2018-11-29T16:27:37.112Z,48.68
2018-11-29T16:30:07.924Z,48.88
2018-11-29T16:32:35.674Z,48.74
2018-11-29T16:35:03.521Z,48.54
2018-11-29T16:37:31.148Z,47.96
2018-11-29T16:39:58.867Z,48.73
2018-11-29T16:42:26.602Z,48.42
2018-11-29T16:44:54.336Z,47.99
2018-11-29T16:47:22.048Z,48.06
2018-11-29T16:49:49.818Z,48.19
2018-11-29T16:52:17.503Z,48.57
2018-11-29T16:54:45.123Z,48.06
2018-11-29T16:57:12.760Z,47.97
2018-11-29T16:59:40.400Z,48.35
2018-11-29T17:02:08.035Z,49.08
2018-11-29T17:04:35.664Z,48.11
2018-11-29T17:07:03.316Z,48.44
2018-11-29T17:09:30.947Z,48.81
2018-11-29T17:12:00.284Z,48.81
2018-11-29T17:14:26.299Z,48.42
2018-11-29T17:16:53.938Z,48.28
2018-11-29T17:19:21.853Z,48.87
2018-11-29T17:21:49.471Z,48.86
2018-11-29T17:24:17.082Z,48.00
2018-11-29T17:26:44.695Z,48.10
2018-11-29T17:29:12.320Z,48.55
2018-11-29T17:31:39.946Z,48.68
2018-11-29T17:34:07.581Z,49.02
2018-11-29T17:36:35.203Z,48.79
2018-11-29T17:39:02.918Z,48.25
2018-11-29T17:41:30.559Z,49.01
2018-11-29T17:43:58.526Z,48.28
2018-11-29T17:46:30.479Z,48.94
2018-11-29T17:48:58.197Z,48.43
2018-11-29T17:51:25.893Z,49.14
2018-11-29T17:53:53.511Z,48.24
2018-11-29T17:56:21.181Z,48.58
2018-11-29T17:58:48.802Z,48.94
2018-11-29T18:01:16.525Z,48.42
2018-11-29T18:03:44.163Z,48.18
2018-11-29T18:06:11.794Z,48.25
2018-11-29T18:08:39.441Z,48.28
2018-11-29T18:11:07.596Z,48.61
2018-11-29T18:13:35.744Z,48.21
2018-11-29T18:16:03.395Z,49.06
2018-11-29T18:18:31.019Z,49.11
2018-11-29T18:20:58.664Z,49.14
2018-11-29T18:23:26.317Z,49.10
2018-11-29T18:25:54.363Z,48.56
2018-11-29T18:28:22.020Z,48.51
2018-11-29T18:30:49.651Z,48.52
2018-11-29T18:33:17.282Z,48.44
2018-11-29T18:35:44.911Z,48.96
2018-11-29T18:38:12.545Z,48.17
2018-11-29T18:40:40.194Z,48.65
2018-11-29T18:43:08.616Z,48.14
2018-11-29T18:45:36.253Z,48.16
2018-11-29T18:48:03.884Z,48.39
2018-11-29T18:50:31.547Z,48.20
2018-11-29T18:52:59.185Z,48.80
2018-11-29T18:55:26.798Z,48.31
2018-11-29T18:57:55.103Z,48.41
2018-11-29T19:00:24.435Z,49.07
2018-11-29T19:02:56.741Z,48.22
2018-11-29T19:05:19.733Z,49.06
2018-11-29T19:07:47.360Z,48.34
2018-11-29T19:10:16.376Z,49.06
2018-11-29T19:12:44.757Z,48.16
2018-11-29T19:15:12.743Z,48.88
2018-11-29T19:17:40.457Z,48.99
2018-11-29T19:20:09.391Z,49.17
2018-11-29T19:22:37.018Z,48.39
2018-11-29T19:25:05.106Z,48.39
2018-11-29T19:27:32.778Z,48.65
2018-11-29T19:30:04.301Z,48.24
2018-11-29T19:32:28.126Z,48.26
2018-11-29T19:34:55.756Z,48.11
2018-11-29T19:37:23.403Z,48.48
2018-11-29T19:39:51.047Z,48.57
2018-11-29T19:42:18.680Z,48.67
2018-11-29T19:44:46.316Z,48.60
2018-11-29T19:47:13.943Z,48.62
2018-11-29T19:49:41.599Z,48.89
2018-11-29T19:52:09.255Z,48.66
2018-11-29T19:54:36.879Z,49.17
2018-11-29T19:57:04.652Z,48.41
2018-11-29T19:59:32.308Z,48.50
2018-11-29T20:01:59.937Z,48.80
2018-11-29T20:04:27.573Z,49.18
2018-11-29T20:06:55.218Z,48.34
2018-11-29T20:09:22.843Z,48.71
2018-11-29T20:11:50.466Z,48.65
2018-11-29T20:14:18.093Z,48.97
2018-11-29T20:16:45.811Z,49.06
2018-11-29T20:19:13.472Z,49.01
2018-11-29T20:21:41.113Z,48.66
2018-11-29T20:24:08.771Z,48.31
2018-11-29T20:26:36.410Z,49.08
2018-11-29T20:29:04.132Z,49.21
2018-11-29T20:31:31.757Z,49.21
2018-11-29T20:33:59.379Z,48.38
2018-11-29T20:36:27.023Z,48.75
2018-11-29T20:38:54.659Z,48.83
2018-11-29T20:41:22.343Z,48.64
2018-11-29T20:43:49.994Z,48.75
2018-11-29T20:46:17.620Z,48.96
2018-11-29T20:48:45.830Z,48.56
2018-11-29T20:51:13.495Z,48.73
2018-11-29T20:53:41.171Z,48.61
2018-11-29T20:56:09.652Z,48.95
2018-11-29T20:58:37.336Z,48.97
2018-11-29T21:01:05.392Z,49.30
2018-11-29T21:03:33.021Z,48.89
2018-11-29T21:06:00.667Z,49.45
2018-11-29T21:08:28.303Z,49.53
2018-11-29T21:10:55.951Z,49.20
2018-11-29T21:13:23.683Z,49.34
2018-11-29T21:15:51.303Z,48.61
2018-11-29T21:18:18.960Z,49.47
2018-11-29T21:20:46.587Z,48.87
2018-11-29T21:23:14.950Z,48.99
2018-11-29T21:25:42.649Z,49.14
2018-11-29T21:28:10.287Z,48.85
2018-11-29T21:30:37.949Z,48.90
2018-11-29T21:33:05.932Z,49.25
2018-11-29T21:35:33.616Z,48.81
2018-11-29T21:38:04.746Z,48.66
2018-11-29T21:40:32.480Z,48.76
2018-11-29T21:43:00.108Z,48.71
2018-11-29T21:45:27.845Z,48.80
2018-11-29T21:47:55.500Z,49.46
2018-11-29T21:50:23.164Z,48.74
2018-11-29T21:52:50.812Z,49.38
2018-11-29T21:55:18.467Z,48.89
2018-11-29T21:57:46.127Z,49.08
2018-11-29T22:00:14.602Z,48.87
2018-11-29T22:02:43.431Z,49.24
2018-11-29T22:05:11.116Z,49.00
2018-11-29T22:07:38.797Z,48.61
2018-11-29T22:10:06.470Z,48.77
2018-11-29T22:12:34.125Z,48.71
2018-11-29T22:15:01.780Z,48.67
2018-11-29T22:17:29.439Z,48.62
2018-11-29T22:19:57.091Z,49.47
2018-11-29T22:22:28.348Z,49.25
2018-11-29T22:24:52.463Z,49.76
2018-11-29T22:27:20.095Z,48.67
2018-11-29T22:29:47.740Z,48.68
2018-11-29T22:32:15.381Z,49.14
2018-11-29T22:34:43.035Z,49.33
2018-11-29T22:37:10.773Z,49.08
2018-11-29T22:39:38.386Z,49.60
2018-11-29T22:42:06.031Z,49.04
2018-11-29T22:44:33.739Z,48.85
2018-11-29T22:47:01.404Z,48.89
2018-11-29T22:49:29.078Z,49.50
2018-11-29T22:51:56.792Z,49.13
2018-11-29T22:54:24.537Z,48.91
2018-11-29T22:56:52.479Z,49.03
2018-11-29T22:59:20.140Z,49.10
2018-11-29T23:01:47.819Z,49.68
2018-11-29T23:04:15.480Z,49.82
2018-11-29T23:06:43.157Z,49.65
2018-11-29T23:09:10.814Z,49.47
2018-11-29T23:11:38.494Z,49.68
2018-11-29T23:14:06.385Z,49.76
2018-11-29T23:16:34.136Z,49.23
2018-11-29T23:19:01.843Z,49.66
2018-11-29T23:21:29.485Z,49.42
2018-11-29T23:23:57.143Z,49.58
2018-11-29T23:26:24.836Z,49.40
2018-11-29T23:28:52.516Z,49.15
2018-11-29T23:31:20.329Z,49.77
2018-11-29T23:33:48.022Z,49.71
2018-11-29T23:36:15.762Z,49.19
2018-11-29T23:38:43.408Z,49.75
2018-11-29T23:41:11.096Z,49.57
2018-11-29T23:43:38.743Z,49.40
2018-11-29T23:46:06.379Z,49.83
2018-11-29T23:48:34.044Z,49.81
2018-11-29T23:51:01.787Z,49.84
2018-11-29T23:53:29.436Z,49.37
2018-11-29T23:55:57.148Z,49.11
2018-11-29T23:58:24.820Z,49.11
